This is the latest recevied weather packets stored in our database for station/object KA3RQR. If no packets are shown the sender has not sent any weather packets the latest 1 day(s).
| Time | Temp. | Humidity | Pressure | Rain* | Wind** | Luminosity | Snow |
|---|---|---|---|---|---|---|---|
| 1778077708 | 15.56° C | 99% | 1010.4 hPa | 0 mm | - | 52 W/m² | - |
| 1778077104 | 15° C | 99% | 1010.2 hPa | 1.27 mm | - | 48 W/m² | - |
| 1778076196 | 15° C | 99% | 1010.4 hPa | 1.78 mm | - | 28 W/m² | - |
| 1778075893 | 15° C | 99% | 1010.3 hPa | 1.27 mm | - | 28 W/m² | - |
| 1778075589 | 15° C | 99% | 1010.3 hPa | 4.32 mm | - | 25 W/m² | - |
| 1778074073 | 15.56° C | 99% | 1010.8 hPa | 4.83 mm | - | 18 W/m² | - |
| 1778072861 | 15.56° C | 98% | 1011.1 hPa | 3.05 mm | - | 16 W/m² | - |
| 1778072256 | 15.56° C | 97% | 1010.8 hPa | 0 mm | - | 19 W/m² | - |
| 1778069533 | 16.67° C | 91% | 1010.4 hPa | 1.78 mm | - | 10 W/m² | - |
| 1778068021 | 17.22° C | 84% | 1011 hPa | 0 mm | - | 10 W/m² | - |
| 1778066508 | 17.78° C | 80% | 1010.1 hPa | 0 mm | - | 8 W/m² | - |
| 1778065903 | 17.78° C | 79% | 1010 hPa | 0 mm | - | 15 W/m² | - |
| 1778065600 | 17.78° C | 78% | 1009.9 hPa | 0 mm | - | 12 W/m² | - |
| 1778064389 | 17.78° C | 77% | 1009.8 hPa | 0 mm | - | 13 W/m² | - |
| 1778062269 | 18.33° C | 74% | 1009.6 hPa | 0 mm | - | 0 W/m² | - |
| 1778061665 | 18.33° C | 73% | 1009.7 hPa | 0 mm | - | 0 W/m² | - |
| 1778061364 | 18.33° C | 73% | 1009.5 hPa | 0 mm | - | 0 W/m² | - |
| 1778061060 | 18.33° C | 73% | 1009.8 hPa | 0 mm | - | 0 W/m² | - |
| 1778060455 | 18.33° C | 73% | 1009.7 hPa | 0 mm | - | 0 W/m² | - |
| 1778058640 | 18.89° C | 72% | 1009.7 hPa | 0 mm | - | 0 W/m² | - |
| 1778058338 | 18.89° C | 72% | 1009.8 hPa | 0 mm | - | 0 W/m² | - |
| 1778058034 | 18.89° C | 71% | 1010 hPa | 0 mm | - | 0 W/m² | - |
| 1778057427 | 18.89° C | 71% | 1009.9 hPa | 0 mm | - | 0 W/m² | - |
| 1778056820 | 18.89° C | 70% | 1009.9 hPa | 0 mm | - | 0 W/m² | - |
| 1778056518 | 18.89° C | 69% | 1010 hPa | 0 mm | - | 0 W/m² | - |
* Rain latest hour (hover to see other rain measurements)
** Current wind speed in m/s (hover to see current wind gust speed)